^^
Station Historical Data
Daily Summary for February 8, 2018 Units:  Both    English   Metric
« Previous Day
Next Day »
Daily Weekly Monthly Yearly Custom
  High: Low: Average:
Temperature: TemperatureF °F /  -17.8 °C 68.2 °F /  20.1 °C 74.4 °F /  23.6 °C
Dew Point: DewpointF °F /  -17.8 °C 54.9 °F /  12.7 °C 55.4 °F /  13 °C
Humidity: Humidity% 42% 51%
Wind Speed: WindSpeedMPHmph /  0km/h - -21.5mph /  -34.6km/h
Wind Gust: WindSpeedGustMPHmph /  0km/h - -
Wind- -
Pressure: PressureIn in /  0 hPa 29.54 in /  1000.2 hPa -
Precipitation: 0.02 in /  0.51 mm    
Historical Graphs
 
 
Tabular Data for February 8, 2018
Time Temperature Dew Point Pressure Wind Wind Speed Wind Gust Humidity Rainfall Rate (Hourly) solar Conditions
TemperatureF °F /  -17.8 °C DewpointF °F /  -17.8 °C PressureInin /  0hPa Calm     Humidity% HourlyPrecipInin /  0mm SoftwareType W/m2 Conditions
08:17 68.2 °F /  20.1 °C 56.3 °F /  13.5 °C 29.61in /  1002.6hPa North -999.9mph /  -1609.1km/h -999.0mph /  -1607.7km/h 66% 0.00in /  0mm meteobridge W/m2
08:23 70.0 °F /  21.1 °C 55.9 °F /  13.3 °C 29.61in /  1002.6hPa SE 2.0mph /  3.2km/h 2.0mph /  3.2km/h 61% 0.00in /  0mm meteobridge W/m2
08:29 71.4 °F /  21.9 °C 56.3 °F /  13.5 °C 29.61in /  1002.6hPa NE 0.9mph /  1.4km/h 1.0mph /  1.6km/h 59% 0.00in /  0mm meteobridge W/m2
08:35 73.2 °F /  22.9 °C 56.1 °F /  13.4 °C 29.61in /  1002.6hPa ENE 0.9mph /  1.4km/h 2.0mph /  3.2km/h 55% 0.00in /  0mm meteobridge W/m2
08:41 74.3 °F /  23.5 °C 56.1 °F /  13.4 °C 29.62in /  1002.9hPa NW 6.0mph /  9.7km/h 6.0mph /  9.7km/h 53% 0.00in /  0mm meteobridge W/m2
08:47 73.8 °F /  23.2 °C 55.6 °F /  13.1 °C 29.62in /  1002.9hPa North 6.0mph /  9.7km/h 9.0mph /  14.5km/h 53% 0.00in /  0mm meteobridge W/m2
08:53 73.2 °F /  22.9 °C 55.6 °F /  13.1 °C 29.62in /  1002.9hPa NNE 6.0mph /  9.7km/h 10.0mph /  16.1km/h 54% 0.00in /  0mm meteobridge W/m2
08:59 72.9 °F /  22.7 °C 55.2 °F /  12.9 °C 29.62in /  1002.9hPa North 8.9mph /  14.3km/h 12.0mph /  19.3km/h 54% 0.00in /  0mm meteobridge W/m2
09:06 72.7 °F /  22.6 °C 55.0 °F /  12.8 °C 29.62in /  1002.9hPa NNE 4.9mph /  7.9km/h 9.0mph /  14.5km/h 54% 0.00in /  0mm meteobridge W/m2
09:12 72.9 °F /  22.7 °C 55.2 °F /  12.9 °C 29.62in /  1002.9hPa NNE 4.0mph /  6.4km/h 6.0mph /  9.7km/h 54% 0.00in /  0mm meteobridge W/m2
09:18 73.0 °F /  22.8 °C 55.4 °F /  13 °C 29.62in /  1002.9hPa NE 2.0mph /  3.2km/h 11.0mph /  17.7km/h 54% 0.00in /  0mm meteobridge W/m2
09:24 73.2 °F /  22.9 °C 55.0 °F /  12.8 °C 29.62in /  1002.9hPa NNE 6.0mph /  9.7km/h 8.0mph /  12.9km/h 53% 0.00in /  0mm meteobridge W/m2
09:30 73.4 °F /  23 °C 55.2 °F /  12.9 °C 29.62in /  1002.9hPa NNE 4.9mph /  7.9km/h 8.0mph /  12.9km/h 53% 0.00in /  0mm meteobridge W/m2
09:36 73.8 °F /  23.2 °C 55.0 °F /  12.8 °C 29.62in /  1002.9hPa North 4.0mph /  6.4km/h 11.0mph /  17.7km/h 52% 0.00in /  0mm meteobridge W/m2
09:42 74.5 °F /  23.6 °C 55.2 °F /  12.9 °C 29.62in /  1002.9hPa NNE 8.9mph /  14.3km/h 13.0mph /  20.9km/h 51% 0.00in /  0mm meteobridge W/m2
09:48 74.3 °F /  23.5 °C 55.0 °F /  12.8 °C 29.62in /  1002.9hPa NE 4.0mph /  6.4km/h 12.0mph /  19.3km/h 51% 0.00in /  0mm meteobridge W/m2
09:54 73.8 °F /  23.2 °C 55.0 °F /  12.8 °C 29.61in /  1002.6hPa NE 6.0mph /  9.7km/h 11.0mph /  17.7km/h 52% 0.00in /  0mm meteobridge W/m2
10:00 73.6 °F /  23.1 °C 54.9 °F /  12.7 °C 29.61in /  1002.6hPa NE 6.9mph /  11.1km/h 11.0mph /  17.7km/h 52% 0.00in /  0mm meteobridge W/m2
10:06 73.6 °F /  23.1 °C 55.4 °F /  13 °C 29.61in /  1002.6hPa ENE 8.9mph /  14.3km/h 11.0mph /  17.7km/h 53% 0.00in /  0mm meteobridge W/m2
10:13 74.5 °F /  23.6 °C 56.3 °F /  13.5 °C 29.61in /  1002.6hPa North 6.9mph /  11.1km/h 7.0mph /  11.3km/h 53% 0.00in /  0mm meteobridge W/m2
10:19 75.4 °F /  24.1 °C 55.9 °F /  13.3 °C 29.61in /  1002.6hPa ENE 2.0mph /  3.2km/h 5.0mph /  8km/h 51% 0.00in /  0mm meteobridge W/m2
10:25 76.5 °F /  24.7 °C 55.9 °F /  13.3 °C 29.61in /  1002.6hPa East 2.0mph /  3.2km/h 4.0mph /  6.4km/h 49% 0.00in /  0mm meteobridge W/m2
10:31 76.8 °F /  24.9 °C 56.3 °F /  13.5 °C 29.61in /  1002.6hPa NE 2.0mph /  3.2km/h 6.0mph /  9.7km/h 49% 0.00in /  0mm meteobridge W/m2
10:37 76.8 °F /  24.9 °C 56.3 °F /  13.5 °C 29.61in /  1002.6hPa ENE 4.0mph /  6.4km/h 10.0mph /  16.1km/h 49% 0.00in /  0mm meteobridge W/m2
10:43 77.4 °F /  25.2 °C 56.1 °F /  13.4 °C 29.61in /  1002.6hPa NNE 4.9mph /  7.9km/h 7.0mph /  11.3km/h 48% 0.00in /  0mm meteobridge W/m2
10:49 77.7 °F /  25.4 °C 55.9 °F /  13.3 °C 29.60in /  1002.3hPa NE 8.9mph /  14.3km/h 12.0mph /  19.3km/h 47% 0.00in /  0mm meteobridge W/m2
10:56 77.5 °F /  25.3 °C 56.3 °F /  13.5 °C 29.61in /  1002.6hPa ENE 4.9mph /  7.9km/h 12.0mph /  19.3km/h 48% 0.00in /  0mm meteobridge W/m2
11:02 77.4 °F /  25.2 °C 56.1 °F /  13.4 °C 29.60in /  1002.3hPa Calm   4.0mph /  6.4km/h 48% 0.00in /  0mm meteobridge W/m2
11:08 78.4 °F /  25.8 °C 55.9 °F /  13.3 °C 29.60in /  1002.3hPa NNE 11.0mph /  17.7km/h 15.0mph /  24.1km/h 46% 0.00in /  0mm meteobridge W/m2
11:14 77.5 °F /  25.3 °C 55.0 °F /  12.8 °C 29.60in /  1002.3hPa Calm   3.0mph /  4.8km/h 46% 0.00in /  0mm meteobridge W/m2
11:20 78.6 °F /  25.9 °C 55.6 °F /  13.1 °C 29.60in /  1002.3hPa NW 6.9mph /  11.1km/h 14.0mph /  22.5km/h 45% 0.00in /  0mm meteobridge W/m2
11:26 78.6 °F /  25.9 °C 56.1 °F /  13.4 °C 29.59in /  1001.9hPa ESE 2.0mph /  3.2km/h 5.0mph /  8km/h 46% 0.00in /  0mm meteobridge W/m2
11:32 79.2 °F /  26.2 °C 55.4 °F /  13 °C 29.59in /  1001.9hPa NE 4.9mph /  7.9km/h 11.0mph /  17.7km/h 44% 0.00in /  0mm meteobridge W/m2
11:38 79.9 °F /  26.6 °C 55.9 °F /  13.3 °C 29.59in /  1001.9hPa North 6.9mph /  11.1km/h 12.0mph /  19.3km/h 44% 0.00in /  0mm meteobridge W/m2
11:44 79.9 °F /  26.6 °C 55.9 °F /  13.3 °C 29.59in /  1001.9hPa ENE 4.9mph /  7.9km/h 15.0mph /  24.1km/h 44% 0.00in /  0mm meteobridge W/m2
11:51 78.8 °F /  26 °C 55.6 °F /  13.1 °C 29.58in /  1001.6hPa NNE 4.0mph /  6.4km/h 9.0mph /  14.5km/h 45% 0.00in /  0mm meteobridge W/m2
11:57 79.2 °F /  26.2 °C 55.9 °F /  13.3 °C 29.58in /  1001.6hPa NNE 4.9mph /  7.9km/h 12.0mph /  19.3km/h 45% 0.00in /  0mm meteobridge W/m2
12:03 79.7 °F /  26.5 °C 55.9 °F /  13.3 °C 29.58in /  1001.6hPa East 4.0mph /  6.4km/h 14.0mph /  22.5km/h 44% 0.00in /  0mm meteobridge W/m2
12:09 81.1 °F /  27.3 °C 56.5 °F /  13.6 °C 29.58in /  1001.6hPa SSE 6.0mph /  9.7km/h 10.0mph /  16.1km/h 43% 0.00in /  0mm meteobridge W/m2
12:15 81.3 °F /  27.4 °C 56.1 °F /  13.4 °C 29.58in /  1001.6hPa ENE 4.9mph /  7.9km/h 10.0mph /  16.1km/h 42% 0.00in /  0mm meteobridge W/m2
12:21 81.1 °F /  27.3 °C 56.5 °F /  13.6 °C 29.58in /  1001.6hPa ENE 2.9mph /  4.7km/h 9.0mph /  14.5km/h 43% 0.00in /  0mm meteobridge W/m2
12:27 80.2 °F /  26.8 °C 56.3 °F /  13.5 °C 29.58in /  1001.6hPa SSW 6.9mph /  11.1km/h 14.0mph /  22.5km/h 44% 0.00in /  0mm meteobridge W/m2
12:33 79.2 °F /  26.2 °C 55.4 °F /  13 °C 29.57in /  1001.2hPa NNW 6.9mph /  11.1km/h 11.0mph /  17.7km/h 44% 0.00in /  0mm meteobridge W/m2
12:40 79.9 °F /  26.6 °C 55.9 °F /  13.3 °C 29.57in /  1001.2hPa Calm   3.0mph /  4.8km/h 44% 0.00in /  0mm meteobridge W/m2
12:46 80.8 °F /  27.1 °C 56.1 °F /  13.4 °C 29.57in /  1001.2hPa SSE 2.9mph /  4.7km/h 6.0mph /  9.7km/h 43% 0.00in /  0mm meteobridge W/m2
12:52 79.3 °F /  26.3 °C 55.6 °F /  13.1 °C 29.57in /  1001.2hPa NE 6.9mph /  11.1km/h 13.0mph /  20.9km/h 44% 0.00in /  0mm meteobridge W/m2
12:58 79.7 °F /  26.5 °C 56.5 °F /  13.6 °C 29.56in /  1000.9hPa SSE 0.9mph /  1.4km/h 12.0mph /  19.3km/h 45% 0.00in /  0mm meteobridge W/m2
13:04 81.3 °F /  27.4 °C 56.7 °F /  13.7 °C 29.56in /  1000.9hPa NNE 16.1mph /  25.9km/h 16.1mph /  25.9km/h 43% 0.00in /  0mm meteobridge W/m2
13:10 80.2 °F /  26.8 °C 55.8 °F /  13.2 °C 29.56in /  1000.9hPa NE 8.9mph /  14.3km/h 11.0mph /  17.7km/h 43% 0.00in /  0mm meteobridge W/m2
13:16 79.3 °F /  26.3 °C 54.9 °F /  12.7 °C 29.56in /  1000.9hPa ENE 6.0mph /  9.7km/h 10.0mph /  16.1km/h 43% 0.00in /  0mm meteobridge W/m2
13:22 79.5 °F /  26.4 °C 55.8 °F /  13.2 °C 29.55in /  1000.6hPa NE 13.0mph /  20.9km/h 13.0mph /  20.9km/h 44% 0.00in /  0mm meteobridge W/m2
13:28 79.0 °F /  26.1 °C 55.2 °F /  12.9 °C 29.55in /  1000.6hPa SE 2.0mph /  3.2km/h 11.0mph /  17.7km/h 44% 0.00in /  0mm meteobridge W/m2
13:35 78.1 °F /  25.6 °C 57.4 °F /  14.1 °C 29.56in /  1000.9hPa NNE 0.9mph /  1.4km/h 9.0mph /  14.5km/h 49% 0.00in /  0mm meteobridge W/m2
13:41 76.6 °F /  24.8 °C 56.7 °F /  13.7 °C 29.54in /  1000.2hPa ESE 0.9mph /  1.4km/h 4.0mph /  6.4km/h 50% 0.00in /  0mm meteobridge W/m2
13:47 75.4 °F /  24.1 °C 58.6 °F /  14.8 °C 29.55in /  1000.6hPa Calm   5.0mph /  8km/h 56% 0.00in /  0mm meteobridge W/m2
13:53 73.4 °F /  23 °C 56.7 °F /  13.7 °C 29.56in /  1000.9hPa Calm   7.0mph /  11.3km/h 56% 0.01in /  0.25mm meteobridge W/m2
13:59 72.7 °F /  22.6 °C 60.6 °F /  15.9 °C 29.55in /  1000.6hPa NNE 0.9mph /  1.4km/h 1.0mph /  1.6km/h 66% 0.02in /  0.51mm meteobridge W/m2
14:05 71.8 °F /  22.1 °C 61.0 °F /  16.1 °C 29.55in /  1000.6hPa SE 4.0mph /  6.4km/h 4.0mph /  6.4km/h 69% 0.02in /  0.51mm meteobridge W/m2
14:12 71.4 °F /  21.9 °C 59.0 °F /  15 °C 29.55in /  1000.6hPa SSE 2.9mph /  4.7km/h 4.0mph /  6.4km/h 65% 0.02in /  0.51mm meteobridge W/m2
14:18 71.8 °F /  22.1 °C 59.0 °F /  15 °C 29.55in /  1000.6hPa South 4.0mph /  6.4km/h 6.0mph /  9.7km/h 64% 0.02in /  0.51mm meteobridge W/m2
14:24 72.1 °F /  22.3 °C 57.0 °F /  13.9 °C 29.55in /  1000.6hPa SSW 6.9mph /  11.1km/h 9.0mph /  14.5km/h 59% 0.02in /  0.51mm meteobridge W/m2
14:30 72.7 °F /  22.6 °C 56.5 °F /  13.6 °C 29.55in /  1000.6hPa South 4.0mph /  6.4km/h 8.0mph /  12.9km/h 57% 0.02in /  0.51mm meteobridge W/m2
14:36 73.0 °F /  22.8 °C 56.8 °F /  13.8 °C 29.55in /  1000.6hPa South 0.9mph /  1.4km/h 4.0mph /  6.4km/h 57% 0.02in /  0.51mm meteobridge W/m2
14:42 73.4 °F /  23 °C 56.7 °F /  13.7 °C 29.54in /  1000.2hPa South 2.9mph /  4.7km/h 3.0mph /  4.8km/h 56% 0.02in /  0.51mm meteobridge W/m2
14:48 73.6 °F /  23.1 °C 55.4 °F /  13 °C 29.55in /  1000.6hPa Calm   5.0mph /  8km/h 53% 0.01in /  0.25mm meteobridge W/m2
14:54 73.8 °F /  23.2 °C 55.6 °F /  13.1 °C 29.55in /  1000.6hPa Calm   2.0mph /  3.2km/h 53% 0.00in /  0mm meteobridge W/m2
15:00 73.8 °F /  23.2 °C 57.0 °F /  13.9 °C 29.55in /  1000.6hPa SSW 2.0mph /  3.2km/h 3.0mph /  4.8km/h 56% 0.00in /  0mm meteobridge W/m2
15:07 73.2 °F /  22.9 °C 56.1 °F /  13.4 °C 29.55in /  1000.6hPa South 4.0mph /  6.4km/h 5.0mph /  8km/h 55% 0.00in /  0mm meteobridge W/m2
15:13 72.9 °F /  22.7 °C 56.7 °F /  13.7 °C 29.55in /  1000.6hPa South 4.9mph /  7.9km/h 6.0mph /  9.7km/h 57% 0.00in /  0mm meteobridge W/m2
15:19 72.1 °F /  22.3 °C 56.5 °F /  13.6 °C 29.55in /  1000.6hPa South 4.9mph /  7.9km/h 6.0mph /  9.7km/h 58% 0.00in /  0mm meteobridge W/m2
15:25 71.8 °F /  22.1 °C 56.1 °F /  13.4 °C 29.55in /  1000.6hPa Calm   6.0mph /  9.7km/h 58% 0.00in /  0mm meteobridge W/m2
15:31 71.4 °F /  21.9 °C 56.3 °F /  13.5 °C 29.56in /  1000.9hPa SSE 6.9mph /  11.1km/h 7.0mph /  11.3km/h 59% 0.00in /  0mm meteobridge W/m2
15:37 70.9 °F /  21.6 °C 56.8 °F /  13.8 °C 29.56in /  1000.9hPa South 4.9mph /  7.9km/h 12.0mph /  19.3km/h 61% 0.00in /  0mm meteobridge W/m2
15:43 70.2 °F /  21.2 °C 56.1 °F /  13.4 °C 29.55in /  1000.6hPa South 4.0mph /  6.4km/h 5.0mph /  8km/h 61% 0.00in /  0mm meteobridge W/m2
15:49 69.8 °F /  21 °C 55.2 °F /  12.9 °C 29.55in /  1000.6hPa Calm     60% 0.00in /  0mm meteobridge W/m2
15:56 69.8 °F /  21 °C 55.2 °F /  12.9 °C 29.54in /  1000.2hPa Calm   -999.0mph /  -1607.7km/h 60% 0.00in /  0mm meteobridge W/m2
16:02 69.8 °F /  21 °C 55.2 °F /  12.9 °C 29.56in /  1000.9hPa North -999.9mph /  -1609.1km/h -999.0mph /  -1607.7km/h 60% 0.00in /  0mm meteobridge W/m2
Regenstein, Windhoek, Namibia
Compliments of Weather Underground - 2.5 mb